Terminal Aerodrome Forecast
Issued by NWS

Home | Current Version | Previous Version | Text Only | Print | Product List | Glossary On
Versions: 1 2 3 4 5 6 7 8 9 10 11 12
000
FTUS43 KOAX 231137
TAFSNY
TAF
KSNY 231137Z 2312/2412 34018G28KT P6SM SCT060 BKN090
     FM231600 33028G42KT P6SM SCT090
     FM240100 32022G30KT P6SM SCT090=

USA.gov is the U.S. government's official web portal to all federal, state and local government web resources and services.